createdAt,value
2019-03-10T00:02:27.737Z,58.39
2019-03-10T00:04:58.029Z,58.42
2019-03-10T00:07:28.298Z,58.48
2019-03-10T00:09:58.922Z,58.52
2019-03-10T00:12:29.349Z,58.56
2019-03-10T00:14:59.907Z,58.60
2019-03-10T00:17:30.537Z,58.63
2019-03-10T00:20:01.760Z,58.67
2019-03-10T00:22:32.785Z,58.69
2019-03-10T00:25:04.081Z,58.73
2019-03-10T00:27:34.518Z,58.74
2019-03-10T00:30:15.663Z,58.80
2019-03-10T00:32:46.050Z,58.81
2019-03-10T00:35:16.319Z,58.85
2019-03-10T00:37:46.578Z,58.88
2019-03-10T00:40:47.218Z,58.92
2019-03-10T00:43:49.208Z,58.95
2019-03-10T00:47:00.322Z,59.00
2019-03-10T00:50:20.903Z,59.06
2019-03-10T00:53:01.915Z,59.11
2019-03-10T00:55:32.566Z,59.15
2019-03-10T00:58:02.841Z,59.17
2019-03-10T01:00:33.421Z,59.21
2019-03-10T01:03:04.095Z,59.25
2019-03-10T01:05:36.024Z,59.28
2019-03-10T01:08:06.666Z,59.31
2019-03-10T01:10:37.460Z,59.32
2019-03-10T01:13:07.926Z,59.36
2019-03-10T01:15:39.172Z,59.39
2019-03-10T01:18:13.421Z,59.42
2019-03-10T01:20:44.204Z,59.44
2019-03-10T01:23:14.778Z,59.47
2019-03-10T01:25:45.162Z,59.49
2019-03-10T01:28:15.695Z,59.52
2019-03-10T01:30:53.340Z,59.57
2019-03-10T01:33:34.180Z,59.61
2019-03-10T01:36:06.350Z,59.64
2019-03-10T01:38:36.912Z,59.66
2019-03-10T01:41:07.201Z,59.72
2019-03-10T01:43:37.399Z,59.72
2019-03-10T01:46:08.073Z,59.72
2019-03-10T01:48:38.700Z,59.72
2019-03-10T01:51:09.122Z,59.72
2019-03-10T01:53:39.840Z,59.74
2019-03-10T01:56:10.572Z,59.74
2019-03-10T01:58:40.836Z,59.71
2019-03-10T02:01:11.469Z,59.74
2019-03-10T02:03:42.088Z,59.75
2019-03-10T02:06:12.836Z,59.76
2019-03-10T02:08:43.467Z,59.80
2019-03-10T02:11:13.787Z,59.84
2019-03-10T02:13:44.332Z,59.87
2019-03-10T02:16:14.740Z,59.90
2019-03-10T02:18:45.318Z,59.92
2019-03-10T02:21:15.583Z,59.98
2019-03-10T02:23:46.151Z,59.99
2019-03-10T02:26:16.437Z,60.03
2019-03-10T02:28:46.638Z,60.02
2019-03-10T02:31:17.228Z,60.08
2019-03-10T02:33:47.492Z,60.11
2019-03-10T02:36:19.604Z,60.16
2019-03-10T02:38:49.866Z,60.19
2019-03-10T02:41:20.450Z,60.23
2019-03-10T02:43:50.719Z,60.26
2019-03-10T02:46:21.007Z,60.30
2019-03-10T02:48:51.664Z,60.32
2019-03-10T02:51:22.329Z,60.36
2019-03-10T02:53:52.962Z,60.40
2019-03-10T02:56:23.613Z,60.44
2019-03-10T02:58:53.899Z,60.46
2019-03-10T03:01:24.538Z,60.46
2019-03-10T03:03:55.195Z,60.43
2019-03-10T03:06:25.500Z,60.38
2019-03-10T03:08:56.051Z,60.35
2019-03-10T03:11:26.903Z,60.33
2019-03-10T03:13:57.182Z,60.31
2019-03-10T03:16:27.424Z,60.28
2019-03-10T03:18:58.128Z,60.28
2019-03-10T03:21:42.428Z,60.26
2019-03-10T03:24:00.644Z,60.25
2019-03-10T03:26:31.308Z,60.22
2019-03-10T03:29:02.611Z,60.20
2019-03-10T03:31:32.833Z,60.19
2019-03-10T03:34:03.015Z,60.17
2019-03-10T03:36:36.099Z,60.17
2019-03-10T03:39:17.487Z,60.16
2019-03-10T03:41:47.976Z,60.17
2019-03-10T03:44:18.510Z,60.16
2019-03-10T03:46:49.172Z,60.12
2019-03-10T03:49:19.452Z,60.09
2019-03-10T03:51:50.017Z,60.07
2019-03-10T03:54:20.682Z,60.04
2019-03-10T03:56:50.937Z,60.04
2019-03-10T03:59:21.163Z,60.01
2019-03-10T04:01:56.315Z,59.99
2019-03-10T04:04:26.936Z,59.94
2019-03-10T04:06:57.576Z,59.92
2019-03-10T04:09:28.286Z,59.89
2019-03-10T04:11:58.536Z,59.87
2019-03-10T04:14:29.130Z,59.84
2019-03-10T04:17:00.375Z,59.78
2019-03-10T04:19:31.557Z,59.75
2019-03-10T04:22:02.098Z,59.73
2019-03-10T04:24:32.389Z,59.70
2019-03-10T04:27:02.996Z,59.69
2019-03-10T04:29:33.713Z,59.65
2019-03-10T04:32:04.079Z,59.64
2019-03-10T04:34:34.285Z,59.63
2019-03-10T04:37:04.908Z,59.59
2019-03-10T04:39:35.632Z,59.57
2019-03-10T04:42:06.362Z,59.56
2019-03-10T04:44:37.005Z,59.54
2019-03-10T04:47:08.889Z,59.55
2019-03-10T04:49:39.542Z,59.51
2019-03-10T04:52:10.212Z,59.49
2019-03-10T04:54:57.138Z,59.49
2019-03-10T04:57:27.338Z,59.47
2019-03-10T04:59:57.561Z,59.48
2019-03-10T05:02:28.749Z,59.44
2019-03-10T05:04:59.298Z,59.40
2019-03-10T05:07:29.576Z,59.38
2019-03-10T05:09:59.784Z,59.33
2019-03-10T05:12:30.363Z,59.31
2019-03-10T05:15:00.987Z,59.29
2019-03-10T05:17:31.679Z,59.30
2019-03-10T05:20:01.923Z,59.27
2019-03-10T05:22:32.129Z,59.26
2019-03-10T05:25:02.707Z,59.25
2019-03-10T05:27:33.261Z,59.25
2019-03-10T05:30:05.835Z,59.25
2019-03-10T05:32:36.104Z,59.21
2019-03-10T05:35:07.873Z,59.19
2019-03-10T05:37:38.078Z,59.15
2019-03-10T05:40:09.709Z,59.13
2019-03-10T05:42:40.413Z,59.10
2019-03-10T05:45:11.282Z,59.11
2019-03-10T05:47:42.075Z,59.11
2019-03-10T05:50:12.370Z,59.12
2019-03-10T05:52:42.621Z,59.13
2019-03-10T05:55:12.843Z,59.18
2019-03-10T05:57:43.429Z,59.17
2019-03-10T06:00:14.110Z,59.18
2019-03-10T06:02:44.797Z,59.20
2019-03-10T06:05:15.369Z,59.24
2019-03-10T06:07:45.687Z,59.19
2019-03-10T06:10:16.232Z,59.13
2019-03-10T06:12:46.506Z,59.10
2019-03-10T06:15:16.853Z,59.12
2019-03-10T06:17:47.517Z,59.08
2019-03-10T06:20:18.188Z,59.08
2019-03-10T06:22:48.856Z,59.07
2019-03-10T06:25:19.583Z,59.05
2019-03-10T06:27:49.863Z,59.02
2019-03-10T06:30:20.082Z,58.92
2019-03-10T06:32:50.765Z,58.84
2019-03-10T06:35:21.059Z,58.72
2019-03-10T06:37:51.314Z,58.63
2019-03-10T06:40:31.611Z,58.52
2019-03-10T06:42:53.862Z,58.47
2019-03-10T06:45:24.447Z,58.42
2019-03-10T06:47:55.183Z,58.38
2019-03-10T06:50:25.807Z,58.34
2019-03-10T06:52:56.163Z,58.30
2019-03-10T06:55:26.839Z,58.27
2019-03-10T06:57:57.119Z,58.23
2019-03-10T07:00:27.744Z,58.21
2019-03-10T07:02:58.389Z,58.16
2019-03-10T07:05:28.655Z,58.15
2019-03-10T07:07:58.871Z,58.14
2019-03-10T07:10:29.199Z,58.12
2019-03-10T07:13:01.458Z,58.12
2019-03-10T07:15:31.810Z,58.13
2019-03-10T07:18:02.000Z,58.13
2019-03-10T07:20:32.557Z,58.13
2019-03-10T07:23:04.840Z,58.15
2019-03-10T07:25:35.551Z,58.20
2019-03-10T07:28:08.889Z,58.21
2019-03-10T07:30:40.817Z,58.13
2019-03-10T07:33:32.347Z,58.03
2019-03-10T07:36:04.353Z,57.99
2019-03-10T07:38:42.093Z,57.88
2019-03-10T07:41:30.226Z,57.81
2019-03-10T07:44:07.827Z,57.73
2019-03-10T07:46:49.081Z,57.64
2019-03-10T07:49:27.140Z,57.56
2019-03-10T07:51:59.087Z,57.57
2019-03-10T07:54:32.613Z,57.64
2019-03-10T07:57:12.210Z,57.57
2019-03-10T08:00:00.392Z,57.50
2019-03-10T08:02:47.185Z,57.39
2019-03-10T08:05:17.531Z,57.29
2019-03-10T08:08:05.988Z,57.16
2019-03-10T08:10:46.641Z,57.04
2019-03-10T08:13:35.206Z,56.92
2019-03-10T08:16:23.987Z,56.85
2019-03-10T08:19:14.155Z,56.78
2019-03-10T08:21:46.383Z,56.76
2019-03-10T08:24:27.669Z,56.70
2019-03-10T08:27:15.914Z,56.66
2019-03-10T08:29:47.773Z,56.63
2019-03-10T08:32:25.455Z,56.60
2019-03-10T08:35:06.559Z,56.72
2019-03-10T08:37:38.472Z,56.81
2019-03-10T08:40:18.028Z,56.64
2019-03-10T08:43:07.969Z,56.43
2019-03-10T08:45:40.156Z,56.20
2019-03-10T08:48:18.403Z,56.03
2019-03-10T08:50:57.610Z,55.88
2019-03-10T08:53:29.885Z,55.66
2019-03-10T08:56:02.183Z,55.51
2019-03-10T08:58:38.536Z,55.34
2019-03-10T09:01:10.550Z,55.24
2019-03-10T09:03:54.786Z,55.11
2019-03-10T09:06:30.891Z,54.93
2019-03-10T09:09:03.162Z,54.79
2019-03-10T09:11:36.696Z,54.61
2019-03-10T09:14:09.725Z,54.50
2019-03-10T09:16:42.984Z,54.40
2019-03-10T09:19:15.249Z,54.29
2019-03-10T09:21:52.995Z,54.23
2019-03-10T09:24:27.776Z,54.17
2019-03-10T09:27:05.477Z,54.11
2019-03-10T09:29:53.209Z,54.04
2019-03-10T09:32:37.710Z,54.00
2019-03-10T09:35:09.726Z,53.99
2019-03-10T09:37:42.075Z,54.02
2019-03-10T09:40:26.293Z,54.02
2019-03-10T09:42:59.971Z,54.00
2019-03-10T09:45:31.896Z,53.94
2019-03-10T09:48:04.108Z,53.87
2019-03-10T09:50:39.325Z,53.76
2019-03-10T09:53:09.705Z,53.63
2019-03-10T09:55:50.578Z,53.54
2019-03-10T09:58:29.957Z,53.43
2019-03-10T10:01:02.322Z,53.34
2019-03-10T10:03:41.331Z,53.28
2019-03-10T10:06:19.431Z,53.16
2019-03-10T10:08:54.684Z,53.05
2019-03-10T10:11:27.006Z,52.93
2019-03-10T10:13:59.826Z,52.85
2019-03-10T10:16:31.777Z,52.76
2019-03-10T10:19:03.658Z,52.63
2019-03-10T10:21:50.315Z,52.55
2019-03-10T10:24:22.543Z,52.47
2019-03-10T10:27:00.435Z,52.41
2019-03-10T10:29:30.832Z,52.36
2019-03-10T10:32:11.652Z,52.35
2019-03-10T10:34:59.461Z,52.30
2019-03-10T10:37:48.134Z,52.25
2019-03-10T10:40:20.174Z,52.18
2019-03-10T10:43:17.080Z,52.15
2019-03-10T10:46:01.266Z,52.09
2019-03-10T10:48:41.935Z,52.05
2019-03-10T10:51:14.163Z,52.02
2019-03-10T10:53:48.943Z,51.99
2019-03-10T10:56:33.321Z,51.95
2019-03-10T10:59:23.814Z,51.92
2019-03-10T11:01:56.087Z,51.91
2019-03-10T11:04:30.572Z,51.88
2019-03-10T11:07:03.394Z,51.86
2019-03-10T11:09:37.697Z,51.84
2019-03-10T11:12:14.094Z,51.81
2019-03-10T11:14:48.872Z,51.80
2019-03-10T11:17:26.825Z,51.77
2019-03-10T11:20:01.512Z,51.73
2019-03-10T11:22:42.090Z,51.70
2019-03-10T11:25:32.344Z,51.66
2019-03-10T11:28:04.625Z,51.63
2019-03-10T11:30:53.064Z,51.59
2019-03-10T11:33:41.167Z,51.58
2019-03-10T11:36:18.759Z,51.57
2019-03-10T11:38:50.634Z,51.54
2019-03-10T11:41:33.661Z,51.50
2019-03-10T11:44:18.823Z,51.45
2019-03-10T11:46:59.381Z,51.38
2019-03-10T11:49:50.244Z,51.34
2019-03-10T11:52:22.164Z,51.29
2019-03-10T11:54:59.979Z,51.24
2019-03-10T11:57:33.379Z,51.19
2019-03-10T12:00:15.338Z,51.18
2019-03-10T12:03:03.322Z,51.14
2019-03-10T12:05:37.886Z,51.11
2019-03-10T12:08:25.152Z,51.07
2019-03-10T12:10:55.400Z,51.04
2019-03-10T12:13:25.625Z,51.00
2019-03-10T12:15:56.323Z,50.96
2019-03-10T12:18:26.552Z,50.94
2019-03-10T12:20:56.971Z,50.89
2019-03-10T12:23:27.251Z,50.83
2019-03-10T12:25:57.468Z,50.78
2019-03-10T12:28:27.743Z,50.74
2019-03-10T12:30:57.963Z,50.70
2019-03-10T12:33:28.535Z,50.67
2019-03-10T12:35:58.801Z,50.62
2019-03-10T12:38:29.016Z,50.56
2019-03-10T12:40:59.601Z,50.53
2019-03-10T12:43:31.536Z,50.50
2019-03-10T12:46:01.820Z,50.48
2019-03-10T12:48:32.521Z,50.42
2019-03-10T12:51:02.804Z,50.38
2019-03-10T12:53:33.906Z,50.31
2019-03-10T12:56:04.509Z,50.29
2019-03-10T12:58:35.064Z,50.24
2019-03-10T13:01:06.745Z,50.20
2019-03-10T13:03:38.114Z,50.14
2019-03-10T13:06:08.632Z,50.08
2019-03-10T13:08:38.835Z,50.04
2019-03-10T13:11:09.062Z,49.99
2019-03-10T13:13:39.907Z,49.92
2019-03-10T13:16:12.275Z,49.88
2019-03-10T13:18:42.108Z,49.87
2019-03-10T13:21:12.309Z,49.86
2019-03-10T13:23:42.535Z,49.80
2019-03-10T13:26:12.803Z,49.76
2019-03-10T13:28:43.537Z,49.75
2019-03-10T13:31:14.191Z,49.72
2019-03-10T13:33:44.815Z,49.68
2019-03-10T13:36:16.470Z,49.65
2019-03-10T13:38:46.757Z,49.61
2019-03-10T13:41:17.030Z,49.55
2019-03-10T13:43:47.203Z,49.50
2019-03-10T13:46:17.768Z,49.42
2019-03-10T13:48:48.167Z,49.40
2019-03-10T13:51:18.399Z,49.33
2019-03-10T13:53:48.766Z,49.30
2019-03-10T13:56:20.085Z,49.26
2019-03-10T13:58:50.739Z,49.23
2019-03-10T14:01:21.423Z,49.19
2019-03-10T14:03:52.222Z,49.16
2019-03-10T14:06:22.507Z,49.12
2019-03-10T14:08:53.096Z,49.08
2019-03-10T14:11:23.700Z,49.00
2019-03-10T14:13:53.946Z,48.95
2019-03-10T14:16:24.535Z,48.91
2019-03-10T14:18:55.575Z,48.87
2019-03-10T14:21:25.799Z,48.83
2019-03-10T14:23:56.350Z,48.80
2019-03-10T14:26:26.715Z,48.75
2019-03-10T14:28:57.339Z,48.69
2019-03-10T14:31:27.636Z,48.64
2019-03-10T14:33:58.185Z,48.56
2019-03-10T14:36:28.487Z,48.50
2019-03-10T14:38:59.205Z,48.42
2019-03-10T14:41:29.842Z,48.38
2019-03-10T14:44:00.561Z,48.31
2019-03-10T14:46:31.263Z,48.27
2019-03-10T14:49:01.569Z,48.23
2019-03-10T14:51:31.774Z,48.20
2019-03-10T14:54:02.028Z,48.14
2019-03-10T14:56:32.572Z,48.10
2019-03-10T14:59:02.859Z,48.04
2019-03-10T15:01:33.086Z,48.00
2019-03-10T15:04:03.307Z,47.94
2019-03-10T15:06:33.546Z,47.92
2019-03-10T15:09:05.324Z,47.89
2019-03-10T15:11:37.532Z,47.87
2019-03-10T15:14:07.855Z,47.81
2019-03-10T15:16:38.694Z,47.79
2019-03-10T15:19:08.965Z,47.75
2019-03-10T15:21:39.196Z,47.73
2019-03-10T15:24:09.785Z,47.69
2019-03-10T15:26:45.776Z,47.67
2019-03-10T15:29:12.689Z,47.64
2019-03-10T15:31:43.333Z,47.59
2019-03-10T15:34:13.985Z,47.58
2019-03-10T15:36:44.252Z,47.54
2019-03-10T15:39:14.831Z,47.53
2019-03-10T15:41:45.130Z,47.51
2019-03-10T15:44:15.833Z,47.49
2019-03-10T15:46:46.095Z,47.45
2019-03-10T15:49:16.586Z,47.43
2019-03-10T15:51:46.808Z,47.40
2019-03-10T15:54:17.017Z,47.38
2019-03-10T15:56:48.510Z,47.34
2019-03-10T15:59:20.622Z,47.31
2019-03-10T16:01:50.964Z,47.27
2019-03-10T16:04:21.798Z,47.25
2019-03-10T16:06:54.056Z,47.24
2019-03-10T16:09:24.780Z,47.20
2019-03-10T16:11:57.061Z,47.19
2019-03-10T16:14:27.361Z,47.17
2019-03-10T16:16:57.562Z,47.14
2019-03-10T16:19:29.163Z,47.12
2019-03-10T16:21:59.443Z,47.10
2019-03-10T16:24:30.011Z,47.08
2019-03-10T16:27:00.660Z,47.07
2019-03-10T16:29:30.953Z,47.05
2019-03-10T16:32:01.280Z,47.03
2019-03-10T16:34:31.837Z,47.01
2019-03-10T16:37:02.453Z,46.99
2019-03-10T16:39:33.066Z,46.97
2019-03-10T16:42:03.912Z,46.97
2019-03-10T16:44:34.574Z,46.94
2019-03-10T16:47:05.216Z,46.94
2019-03-10T16:49:35.843Z,46.92
2019-03-10T16:52:06.224Z,46.90
2019-03-10T16:54:36.625Z,46.89
2019-03-10T16:57:08.917Z,46.89
2019-03-10T16:59:39.518Z,46.89
2019-03-10T17:02:10.671Z,46.86
2019-03-10T17:04:41.256Z,46.85
2019-03-10T17:07:11.608Z,46.85
2019-03-10T17:09:42.602Z,46.82
2019-03-10T17:12:12.825Z,46.83
2019-03-10T17:14:43.104Z,46.84
2019-03-10T17:17:14.570Z,46.86
2019-03-10T17:19:46.651Z,46.85
2019-03-10T17:22:18.020Z,46.87
2019-03-10T17:24:52.099Z,46.88
2019-03-10T17:27:22.331Z,46.88
2019-03-10T17:29:52.560Z,46.87
2019-03-10T17:32:24.973Z,46.88
2019-03-10T17:34:55.695Z,46.91
2019-03-10T17:37:29.000Z,46.92
2019-03-10T17:39:59.733Z,46.96
2019-03-10T17:42:30.391Z,46.99
2019-03-10T17:45:01.321Z,47.03
2019-03-10T17:47:31.712Z,47.06
2019-03-10T17:50:01.947Z,47.08
2019-03-10T17:52:33.168Z,47.13
2019-03-10T17:55:05.023Z,47.15
2019-03-10T17:57:36.451Z,47.18
2019-03-10T18:00:12.203Z,47.21
2019-03-10T18:02:42.632Z,47.24
2019-03-10T18:05:12.932Z,47.26
2019-03-10T18:07:43.208Z,47.31
2019-03-10T18:10:15.648Z,47.31
2019-03-10T18:12:46.124Z,47.33
2019-03-10T18:15:18.246Z,47.37
2019-03-10T18:17:48.443Z,47.38
2019-03-10T18:20:24.441Z,47.45
2019-03-10T18:22:55.052Z,47.47
2019-03-10T18:25:25.900Z,47.52
2019-03-10T18:27:57.687Z,47.57
2019-03-10T18:30:28.495Z,47.61
2019-03-10T18:32:58.772Z,47.65
2019-03-10T18:35:30.080Z,47.70
2019-03-10T18:38:01.924Z,47.76
2019-03-10T18:40:32.667Z,47.81
2019-03-10T18:43:02.993Z,47.88
2019-03-10T18:45:35.549Z,47.94
2019-03-10T18:48:06.216Z,47.99
2019-03-10T18:50:36.942Z,48.06
2019-03-10T18:53:07.249Z,48.12
2019-03-10T18:55:37.819Z,48.19
2019-03-10T18:58:08.111Z,48.25
2019-03-10T19:00:38.401Z,48.30
2019-03-10T19:03:08.752Z,48.38
2019-03-10T19:05:39.033Z,48.45
2019-03-10T19:08:09.348Z,48.52
2019-03-10T19:10:39.581Z,48.56
2019-03-10T19:13:10.139Z,48.62
2019-03-10T19:15:40.452Z,48.68
2019-03-10T19:18:11.023Z,48.76
2019-03-10T19:20:41.663Z,48.81
2019-03-10T19:23:11.971Z,48.88
2019-03-10T19:25:42.565Z,48.92
2019-03-10T19:28:12.828Z,49.01
2019-03-10T19:30:43.041Z,49.06
2019-03-10T19:33:13.253Z,49.13
2019-03-10T19:35:43.470Z,49.20
2019-03-10T19:38:14.053Z,49.26
2019-03-10T19:40:51.067Z,49.33
2019-03-10T19:43:21.762Z,49.38
2019-03-10T19:45:52.477Z,49.45
2019-03-10T19:48:22.791Z,49.53
2019-03-10T19:50:53.019Z,49.58
2019-03-10T19:53:23.589Z,49.66
2019-03-10T19:55:53.855Z,49.73
2019-03-10T19:58:24.442Z,49.78
2019-03-10T20:00:54.718Z,49.86
2019-03-10T20:03:25.001Z,49.89
2019-03-10T20:05:55.523Z,49.97
2019-03-10T20:08:25.819Z,50.04
2019-03-10T20:10:56.029Z,50.10
2019-03-10T20:13:26.266Z,50.15
2019-03-10T20:15:57.554Z,50.22
2019-03-10T20:18:27.803Z,50.27
2019-03-10T20:20:58.015Z,50.31
2019-03-10T20:23:28.597Z,50.36
2019-03-10T20:26:00.208Z,50.43
2019-03-10T20:28:32.122Z,50.48
2019-03-10T20:31:02.350Z,50.54
2019-03-10T20:33:32.949Z,50.60
2019-03-10T20:36:03.291Z,50.67
2019-03-10T20:38:33.864Z,50.74
2019-03-10T20:41:04.530Z,50.80
2019-03-10T20:43:35.174Z,50.86
2019-03-10T20:46:05.887Z,50.93
2019-03-10T20:48:36.526Z,50.99
2019-03-10T20:51:07.174Z,51.06
2019-03-10T20:53:37.513Z,51.13
2019-03-10T20:56:08.095Z,51.19
2019-03-10T20:58:38.572Z,51.25
2019-03-10T21:01:10.215Z,51.32
2019-03-10T21:03:40.886Z,51.37
2019-03-10T21:06:11.635Z,51.43
2019-03-10T21:08:41.906Z,51.48
2019-03-10T21:11:12.682Z,51.54
2019-03-10T21:13:42.936Z,51.60
2019-03-10T21:16:16.488Z,51.64
2019-03-10T21:18:48.225Z,51.72
2019-03-10T21:21:20.894Z,51.74
2019-03-10T21:23:51.102Z,51.80
2019-03-10T21:26:21.756Z,51.86
2019-03-10T21:28:52.381Z,51.92
2019-03-10T21:31:22.735Z,51.97
2019-03-10T21:33:53.736Z,52.01
2019-03-10T21:36:24.409Z,52.08
2019-03-10T21:38:54.685Z,52.14
2019-03-10T21:41:26.566Z,52.20
2019-03-10T21:43:57.125Z,52.25
2019-03-10T21:46:27.737Z,52.34
2019-03-10T21:48:58.291Z,52.38
2019-03-10T21:51:28.983Z,52.41
2019-03-10T21:53:59.274Z,52.45
2019-03-10T21:56:29.832Z,52.52
2019-03-10T21:59:00.858Z,52.57
2019-03-10T22:01:31.132Z,52.61
2019-03-10T22:04:01.344Z,52.65
2019-03-10T22:06:33.214Z,52.70
2019-03-10T22:09:04.991Z,52.74
2019-03-10T22:11:37.179Z,52.82
2019-03-10T22:14:07.881Z,52.83
2019-03-10T22:16:38.543Z,52.91
2019-03-10T22:19:08.829Z,52.96
2019-03-10T22:21:40.296Z,53.02
2019-03-10T22:24:10.523Z,53.05
2019-03-10T22:26:40.737Z,53.16
2019-03-10T22:29:10.991Z,53.21
2019-03-10T22:31:41.627Z,53.26
2019-03-10T22:34:12.207Z,53.33
2019-03-10T22:36:45.685Z,53.38
2019-03-10T22:39:16.278Z,53.41
2019-03-10T22:41:46.558Z,53.46
2019-03-10T22:44:17.149Z,53.55
2019-03-10T22:46:47.508Z,53.60
2019-03-10T22:49:18.999Z,53.66
2019-03-10T22:51:49.657Z,53.73
2019-03-10T22:54:23.147Z,53.78
2019-03-10T22:56:53.818Z,53.85
2019-03-10T22:59:25.422Z,53.92
2019-03-10T23:01:56.047Z,53.99
2019-03-10T23:04:26.332Z,54.07
2019-03-10T23:06:56.902Z,54.13
2019-03-10T23:09:30.331Z,54.18
2019-03-10T23:12:02.314Z,54.24
2019-03-10T23:14:32.876Z,54.33
2019-03-10T23:17:03.238Z,54.37
2019-03-10T23:19:34.304Z,54.43
2019-03-10T23:22:04.601Z,54.53
2019-03-10T23:24:34.823Z,54.59
2019-03-10T23:27:05.416Z,54.67
2019-03-10T23:29:36.069Z,54.76
2019-03-10T23:32:06.357Z,54.83
2019-03-10T23:34:36.840Z,54.90
2019-03-10T23:37:07.085Z,54.94
2019-03-10T23:39:38.266Z,55.00
2019-03-10T23:42:08.832Z,55.08
2019-03-10T23:44:39.465Z,55.11
2019-03-10T23:47:10.124Z,55.20
2019-03-10T23:49:40.752Z,55.24
2019-03-10T23:52:11.474Z,55.33
2019-03-10T23:54:41.753Z,55.42
2019-03-10T23:57:11.993Z,55.48
2019-03-10T23:59:42.210Z,55.54
